sensor_id;sensor_type;location;lat;lon;timestamp;P1;durP1;ratioP1;P2;durP2;ratioP2
7047;SDS011;3565;53.254;10.352;2023-07-13T00:02:22;5.40;;;4.20;;
7047;SDS011;3565;53.254;10.352;2023-07-13T00:04:53;5.33;;;4.43;;
7047;SDS011;3565;53.254;10.352;2023-07-13T00:07:22;7.77;;;4.90;;
7047;SDS011;3565;53.254;10.352;2023-07-13T00:09:51;6.43;;;4.50;;
7047;SDS011;3565;53.254;10.352;2023-07-13T00:12:24;5.03;;;4.00;;
7047;SDS011;3565;53.254;10.352;2023-07-13T00:14:56;6.97;;;4.40;;
7047;SDS011;3565;53.254;10.352;2023-07-13T00:17:35;7.20;;;4.27;;
7047;SDS011;3565;53.254;10.352;2023-07-13T00:22:42;5.07;;;4.57;;
7047;SDS011;3565;53.254;10.352;2023-07-13T00:25:11;6.53;;;3.90;;
7047;SDS011;3565;53.254;10.352;2023-07-13T00:27:50;7.00;;;4.77;;
7047;SDS011;3565;53.254;10.352;2023-07-13T00:30:20;5.43;;;4.10;;
7047;SDS011;3565;53.254;10.352;2023-07-13T00:32:49;6.87;;;4.73;;
7047;SDS011;3565;53.254;10.352;2023-07-13T00:37:55;5.33;;;4.50;;
7047;SDS011;3565;53.254;10.352;2023-07-13T00:40:24;5.87;;;4.27;;
7047;SDS011;3565;53.254;10.352;2023-07-13T00:43:04;8.83;;;4.83;;
7047;SDS011;3565;53.254;10.352;2023-07-13T00:51:30;7.73;;;5.03;;
7047;SDS011;3565;53.254;10.352;2023-07-13T00:53:58;5.13;;;4.40;;
7047;SDS011;3565;53.254;10.352;2023-07-13T00:59:07;8.37;;;5.17;;
7047;SDS011;3565;53.254;10.352;2023-07-13T01:01:40;7.00;;;5.03;;
7047;SDS011;3565;53.254;10.352;2023-07-13T01:04:18;5.70;;;4.90;;
7047;SDS011;3565;53.254;10.352;2023-07-13T01:09:25;6.70;;;5.00;;
7047;SDS011;3565;53.254;10.352;2023-07-13T01:11:55;6.37;;;4.63;;
7047;SDS011;3565;53.254;10.352;2023-07-13T01:14:25;6.73;;;5.03;;
7047;SDS011;3565;53.254;10.352;2023-07-13T01:16:55;7.53;;;5.70;;
7047;SDS011;3565;53.254;10.352;2023-07-13T01:19:29;7.07;;;5.40;;
7047;SDS011;3565;53.254;10.352;2023-07-13T01:22:10;6.73;;;5.20;;
7047;SDS011;3565;53.254;10.352;2023-07-13T01:24:42;8.70;;;6.00;;
7047;SDS011;3565;53.254;10.352;2023-07-13T01:27:21;9.40;;;5.80;;
7047;SDS011;3565;53.254;10.352;2023-07-13T01:29:52;6.73;;;5.23;;
7047;SDS011;3565;53.254;10.352;2023-07-13T01:32:23;6.30;;;5.70;;
7047;SDS011;3565;53.254;10.352;2023-07-13T01:34:53;11.83;;;6.10;;
7047;SDS011;3565;53.254;10.352;2023-07-13T01:37:22;8.30;;;5.77;;
7047;SDS011;3565;53.254;10.352;2023-07-13T01:39:51;6.07;;;5.40;;
7047;SDS011;3565;53.254;10.352;2023-07-13T01:42:20;5.73;;;4.83;;
7047;SDS011;3565;53.254;10.352;2023-07-13T01:44:50;10.43;;;5.80;;
7047;SDS011;3565;53.254;10.352;2023-07-13T01:49:56;7.50;;;5.67;;
7047;SDS011;3565;53.254;10.352;2023-07-13T01:52:25;7.70;;;5.30;;
7047;SDS011;3565;53.254;10.352;2023-07-13T01:54:54;7.47;;;5.80;;
7047;SDS011;3565;53.254;10.352;2023-07-13T01:57:23;9.83;;;5.57;;
7047;SDS011;3565;53.254;10.352;2023-07-13T02:02:50;8.33;;;5.73;;
7047;SDS011;3565;53.254;10.352;2023-07-13T02:05:19;7.10;;;5.90;;
7047;SDS011;3565;53.254;10.352;2023-07-13T02:07:48;7.80;;;5.60;;
7047;SDS011;3565;53.254;10.352;2023-07-13T02:12:56;7.17;;;5.53;;
7047;SDS011;3565;53.254;10.352;2023-07-13T02:15:25;6.10;;;5.47;;
7047;SDS011;3565;53.254;10.352;2023-07-13T02:18:05;7.00;;;5.20;;
7047;SDS011;3565;53.254;10.352;2023-07-13T02:23:12;6.80;;;5.10;;
7047;SDS011;3565;53.254;10.352;2023-07-13T02:28:19;6.80;;;5.30;;
7047;SDS011;3565;53.254;10.352;2023-07-13T02:30:48;9.17;;;5.50;;
7047;SDS011;3565;53.254;10.352;2023-07-13T02:35:54;6.20;;;5.27;;
7047;SDS011;3565;53.254;10.352;2023-07-13T02:38:23;8.17;;;5.03;;
7047;SDS011;3565;53.254;10.352;2023-07-13T02:43:30;6.80;;;4.90;;
7047;SDS011;3565;53.254;10.352;2023-07-13T02:46:00;7.77;;;5.73;;
7047;SDS011;3565;53.254;10.352;2023-07-13T02:48:38;7.77;;;5.60;;
7047;SDS011;3565;53.254;10.352;2023-07-13T02:53:45;6.70;;;5.10;;
7047;SDS011;3565;53.254;10.352;2023-07-13T02:56:14;7.90;;;5.50;;
7047;SDS011;3565;53.254;10.352;2023-07-13T02:58:52;7.10;;;5.70;;
7047;SDS011;3565;53.254;10.352;2023-07-13T03:03:59;8.77;;;5.37;;
7047;SDS011;3565;53.254;10.352;2023-07-13T03:06:28;6.63;;;4.90;;
7047;SDS011;3565;53.254;10.352;2023-07-13T03:09:08;8.17;;;5.90;;
7047;SDS011;3565;53.254;10.352;2023-07-13T03:11:46;7.53;;;5.33;;
7047;SDS011;3565;53.254;10.352;2023-07-13T03:16:52;8.87;;;5.60;;
7047;SDS011;3565;53.254;10.352;2023-07-13T03:19:21;6.20;;;5.10;;
7047;SDS011;3565;53.254;10.352;2023-07-13T03:21:51;5.90;;;5.30;;
7047;SDS011;3565;53.254;10.352;2023-07-13T03:24:20;7.53;;;5.60;;
7047;SDS011;3565;53.254;10.352;2023-07-13T03:26:51;7.40;;;5.50;;
7047;SDS011;3565;53.254;10.352;2023-07-13T03:29:20;6.60;;;5.37;;
7047;SDS011;3565;53.254;10.352;2023-07-13T03:31:49;8.07;;;5.60;;
7047;SDS011;3565;53.254;10.352;2023-07-13T03:34:18;6.27;;;5.03;;
7047;SDS011;3565;53.254;10.352;2023-07-13T03:36:56;6.83;;;5.10;;
7047;SDS011;3565;53.254;10.352;2023-07-13T03:39:25;6.33;;;5.37;;
7047;SDS011;3565;53.254;10.352;2023-07-13T03:41:55;7.40;;;5.17;;
7047;SDS011;3565;53.254;10.352;2023-07-13T03:44:24;6.00;;;5.37;;
7047;SDS011;3565;53.254;10.352;2023-07-13T03:46:53;8.10;;;5.83;;
7047;SDS011;3565;53.254;10.352;2023-07-13T03:49:21;7.23;;;5.63;;
7047;SDS011;3565;53.254;10.352;2023-07-13T03:51:51;7.70;;;5.87;;
7047;SDS011;3565;53.254;10.352;2023-07-13T03:54:20;7.07;;;5.40;;
7047;SDS011;3565;53.254;10.352;2023-07-13T03:56:49;5.97;;;5.23;;
7047;SDS011;3565;53.254;10.352;2023-07-13T04:01:55;5.53;;;4.87;;
7047;SDS011;3565;53.254;10.352;2023-07-13T04:04:25;6.60;;;5.13;;
7047;SDS011;3565;53.254;10.352;2023-07-13T04:06:54;6.93;;;4.83;;
7047;SDS011;3565;53.254;10.352;2023-07-13T04:09:24;7.43;;;5.50;;
7047;SDS011;3565;53.254;10.352;2023-07-13T04:11:54;5.63;;;4.90;;
7047;SDS011;3565;53.254;10.352;2023-07-13T04:17:20;7.33;;;4.83;;
7047;SDS011;3565;53.254;10.352;2023-07-13T04:19:49;9.13;;;5.20;;
7047;SDS011;3565;53.254;10.352;2023-07-13T04:22:18;6.67;;;5.07;;
7047;SDS011;3565;53.254;10.352;2023-07-13T04:27:25;7.37;;;5.80;;
7047;SDS011;3565;53.254;10.352;2023-07-13T04:29:55;7.00;;;5.20;;
7047;SDS011;3565;53.254;10.352;2023-07-13T04:32:24;6.50;;;4.77;;
7047;SDS011;3565;53.254;10.352;2023-07-13T04:34:53;6.93;;;5.17;;
7047;SDS011;3565;53.254;10.352;2023-07-13T04:37:23;8.67;;;5.40;;
7047;SDS011;3565;53.254;10.352;2023-07-13T04:39:53;6.50;;;4.93;;
7047;SDS011;3565;53.254;10.352;2023-07-13T04:42:22;10.30;;;5.60;;
7047;SDS011;3565;53.254;10.352;2023-07-13T04:44:51;4.90;;;4.40;;
7047;SDS011;3565;53.254;10.352;2023-07-13T04:47:21;5.10;;;4.60;;
7047;SDS011;3565;53.254;10.352;2023-07-13T04:49:50;5.83;;;5.20;;
7047;SDS011;3565;53.254;10.352;2023-07-13T04:52:19;7.33;;;5.10;;
7047;SDS011;3565;53.254;10.352;2023-07-13T04:54:49;7.57;;;5.00;;
7047;SDS011;3565;53.254;10.352;2023-07-13T04:59:55;8.73;;;5.13;;
7047;SDS011;3565;53.254;10.352;2023-07-13T05:02:27;6.03;;;4.77;;
7047;SDS011;3565;53.254;10.352;2023-07-13T05:04:58;8.97;;;4.97;;
7047;SDS011;3565;53.254;10.352;2023-07-13T05:07:36;6.43;;;4.73;;
7047;SDS011;3565;53.254;10.352;2023-07-13T05:10:07;5.03;;;4.53;;
7047;SDS011;3565;53.254;10.352;2023-07-13T05:12:46;9.87;;;4.30;;
7047;SDS011;3565;53.254;10.352;2023-07-13T05:17:52;10.07;;;4.70;;
7047;SDS011;3565;53.254;10.352;2023-07-13T05:20:21;5.10;;;4.03;;
7047;SDS011;3565;53.254;10.352;2023-07-13T05:22:51;6.40;;;3.97;;
7047;SDS011;3565;53.254;10.352;2023-07-13T05:25:20;5.13;;;4.47;;
7047;SDS011;3565;53.254;10.352;2023-07-13T05:27:49;6.97;;;3.67;;
7047;SDS011;3565;53.254;10.352;2023-07-13T05:30:18;6.63;;;3.70;;
7047;SDS011;3565;53.254;10.352;2023-07-13T05:32:47;5.53;;;3.93;;
7047;SDS011;3565;53.254;10.352;2023-07-13T05:35:16;8.73;;;3.80;;
7047;SDS011;3565;53.254;10.352;2023-07-13T05:37:54;8.17;;;4.10;;
7047;SDS011;3565;53.254;10.352;2023-07-13T05:40:24;6.13;;;3.50;;
7047;SDS011;3565;53.254;10.352;2023-07-13T05:42:53;8.07;;;3.33;;
7047;SDS011;3565;53.254;10.352;2023-07-13T05:45:22;8.30;;;3.43;;
7047;SDS011;3565;53.254;10.352;2023-07-13T05:47:52;7.00;;;3.10;;
7047;SDS011;3565;53.254;10.352;2023-07-13T05:50:21;5.43;;;3.00;;
7047;SDS011;3565;53.254;10.352;2023-07-13T05:52:50;5.83;;;3.90;;
7047;SDS011;3565;53.254;10.352;2023-07-13T05:57:56;8.10;;;3.20;;
7047;SDS011;3565;53.254;10.352;2023-07-13T06:00:25;8.13;;;3.40;;
7047;SDS011;3565;53.254;10.352;2023-07-13T06:02:55;10.40;;;3.00;;
7047;SDS011;3565;53.254;10.352;2023-07-13T06:05:24;6.53;;;3.03;;
7047;SDS011;3565;53.254;10.352;2023-07-13T06:07:55;8.00;;;2.87;;
7047;SDS011;3565;53.254;10.352;2023-07-13T06:10:36;7.90;;;2.70;;
7047;SDS011;3565;53.254;10.352;2023-07-13T06:13:13;8.80;;;3.13;;
7047;SDS011;3565;53.254;10.352;2023-07-13T06:15:52;8.23;;;3.17;;
7047;SDS011;3565;53.254;10.352;2023-07-13T06:18:21;7.23;;;2.73;;
7047;SDS011;3565;53.254;10.352;2023-07-13T06:20:50;9.40;;;2.80;;
7047;SDS011;3565;53.254;10.352;2023-07-13T06:23:20;8.17;;;3.17;;
7047;SDS011;3565;53.254;10.352;2023-07-13T06:25:49;11.17;;;3.03;;
7047;SDS011;3565;53.254;10.352;2023-07-13T06:28:18;9.23;;;2.90;;
7047;SDS011;3565;53.254;10.352;2023-07-13T06:30:47;6.27;;;2.70;;
7047;SDS011;3565;53.254;10.352;2023-07-13T06:33:17;7.83;;;2.87;;
7047;SDS011;3565;53.254;10.352;2023-07-13T06:35:56;8.13;;;2.87;;
7047;SDS011;3565;53.254;10.352;2023-07-13T06:38:24;8.43;;;2.73;;
7047;SDS011;3565;53.254;10.352;2023-07-13T06:43:32;8.20;;;2.73;;
7047;SDS011;3565;53.254;10.352;2023-07-13T06:46:01;10.23;;;3.13;;
7047;SDS011;3565;53.254;10.352;2023-07-13T06:48:40;10.20;;;2.90;;
7047;SDS011;3565;53.254;10.352;2023-07-13T06:53:46;9.13;;;3.03;;
7047;SDS011;3565;53.254;10.352;2023-07-13T06:56:16;10.13;;;3.27;;
7047;SDS011;3565;53.254;10.352;2023-07-13T06:58:54;11.63;;;3.50;;
7047;SDS011;3565;53.254;10.352;2023-07-13T07:04:01;9.13;;;2.70;;
7047;SDS011;3565;53.254;10.352;2023-07-13T07:06:32;9.53;;;3.00;;
7047;SDS011;3565;53.254;10.352;2023-07-13T07:09:10;7.67;;;2.73;;
7047;SDS011;3565;53.254;10.352;2023-07-13T07:14:20;10.23;;;3.00;;
7047;SDS011;3565;53.254;10.352;2023-07-13T07:16:50;7.07;;;2.50;;
7047;SDS011;3565;53.254;10.352;2023-07-13T07:19:29;11.63;;;3.20;;
7047;SDS011;3565;53.254;10.352;2023-07-13T07:24:35;8.93;;;2.70;;
7047;SDS011;3565;53.254;10.352;2023-07-13T07:27:05;8.13;;;2.60;;
7047;SDS011;3565;53.254;10.352;2023-07-13T07:29:44;10.20;;;3.47;;
7047;SDS011;3565;53.254;10.352;2023-07-13T07:34:52;9.57;;;3.20;;
7047;SDS011;3565;53.254;10.352;2023-07-13T07:37:21;8.10;;;2.80;;
7047;SDS011;3565;53.254;10.352;2023-07-13T07:39:50;10.17;;;3.37;;
7047;SDS011;3565;53.254;10.352;2023-07-13T07:42:20;11.13;;;3.23;;
7047;SDS011;3565;53.254;10.352;2023-07-13T07:47:17;7.27;;;3.07;;
7047;SDS011;3565;53.254;10.352;2023-07-13T07:49:55;10.53;;;2.93;;
7047;SDS011;3565;53.254;10.352;2023-07-13T07:52:25;5.23;;;2.50;;
7047;SDS011;3565;53.254;10.352;2023-07-13T07:54:54;6.37;;;2.67;;
7047;SDS011;3565;53.254;10.352;2023-07-13T07:57:23;6.03;;;2.73;;
7047;SDS011;3565;53.254;10.352;2023-07-13T07:59:52;7.23;;;3.13;;
7047;SDS011;3565;53.254;10.352;2023-07-13T08:02:21;5.83;;;2.77;;
7047;SDS011;3565;53.254;10.352;2023-07-13T08:04:52;8.30;;;2.93;;
7047;SDS011;3565;53.254;10.352;2023-07-13T08:07:21;5.00;;;2.60;;
7047;SDS011;3565;53.254;10.352;2023-07-13T08:09:52;9.40;;;2.97;;
7047;SDS011;3565;53.254;10.352;2023-07-13T08:12:21;5.60;;;2.50;;
7047;SDS011;3565;53.254;10.352;2023-07-13T08:14:51;8.03;;;2.60;;
7047;SDS011;3565;53.254;10.352;2023-07-13T08:17:22;6.83;;;2.77;;
7047;SDS011;3565;53.254;10.352;2023-07-13T08:19:51;6.63;;;2.70;;
7047;SDS011;3565;53.254;10.352;2023-07-13T08:22:20;5.80;;;2.80;;
7047;SDS011;3565;53.254;10.352;2023-07-13T08:24:49;7.47;;;2.77;;
7047;SDS011;3565;53.254;10.352;2023-07-13T08:27:22;7.23;;;2.60;;
7047;SDS011;3565;53.254;10.352;2023-07-13T08:29:53;7.10;;;2.80;;
7047;SDS011;3565;53.254;10.352;2023-07-13T08:32:22;8.20;;;3.03;;
7047;SDS011;3565;53.254;10.352;2023-07-13T08:34:52;6.17;;;2.80;;
7047;SDS011;3565;53.254;10.352;2023-07-13T08:37:21;8.53;;;3.00;;
7047;SDS011;3565;53.254;10.352;2023-07-13T08:39:49;6.93;;;2.93;;
7047;SDS011;3565;53.254;10.352;2023-07-13T08:42:22;7.53;;;2.70;;
7047;SDS011;3565;53.254;10.352;2023-07-13T08:44:57;6.37;;;2.53;;
7047;SDS011;3565;53.254;10.352;2023-07-13T08:47:39;8.77;;;2.60;;
7047;SDS011;3565;53.254;10.352;2023-07-13T08:50:12;5.93;;;2.37;;
7047;SDS011;3565;53.254;10.352;2023-07-13T08:52:51;7.87;;;2.60;;
7047;SDS011;3565;53.254;10.352;2023-07-13T08:55:24;6.93;;;2.60;;
7047;SDS011;3565;53.254;10.352;2023-07-13T08:57:59;6.87;;;2.40;;
7047;SDS011;3565;53.254;10.352;2023-07-13T09:00:38;6.03;;;2.20;;
7047;SDS011;3565;53.254;10.352;2023-07-13T09:03:15;7.00;;;2.60;;
7047;SDS011;3565;53.254;10.352;2023-07-13T09:05:55;4.60;;;2.50;;
7047;SDS011;3565;53.254;10.352;2023-07-13T09:08:33;7.93;;;2.80;;
7047;SDS011;3565;53.254;10.352;2023-07-13T09:13:46;5.10;;;2.03;;
7047;SDS011;3565;53.254;10.352;2023-07-13T09:18:56;6.10;;;2.20;;
7047;SDS011;3565;53.254;10.352;2023-07-13T09:21:28;6.67;;;2.23;;
7047;SDS011;3565;53.254;10.352;2023-07-13T09:24:26;4.60;;;2.40;;
7047;SDS011;3565;53.254;10.352;2023-07-13T09:29:34;5.20;;;2.17;;
7047;SDS011;3565;53.254;10.352;2023-07-13T09:32:06;6.00;;;2.23;;
7047;SDS011;3565;53.254;10.352;2023-07-13T09:34:50;4.47;;;2.00;;
7047;SDS011;3565;53.254;10.352;2023-07-13T09:37:21;6.80;;;2.27;;
7047;SDS011;3565;53.254;10.352;2023-07-13T09:39:52;9.05;;;1.87;;
7047;SDS011;3565;53.254;10.352;2023-07-13T09:42:23;4.03;;;1.82;;
7047;SDS011;3565;53.254;10.352;2023-07-13T09:44:55;3.87;;;2.00;;
7047;SDS011;3565;53.254;10.352;2023-07-13T09:47:27;4.90;;;2.23;;
7047;SDS011;3565;53.254;10.352;2023-07-13T09:49:58;5.20;;;2.30;;
7047;SDS011;3565;53.254;10.352;2023-07-13T09:52:40;5.27;;;2.20;;
7047;SDS011;3565;53.254;10.352;2023-07-13T09:55:23;5.53;;;2.50;;
7047;SDS011;3565;53.254;10.352;2023-07-13T09:57:54;5.73;;;2.20;;
7047;SDS011;3565;53.254;10.352;2023-07-13T10:00:24;5.27;;;2.30;;
7047;SDS011;3565;53.254;10.352;2023-07-13T10:02:59;6.43;;;2.40;;
7047;SDS011;3565;53.254;10.352;2023-07-13T10:08:19;6.73;;;2.20;;
7047;SDS011;3565;53.254;10.352;2023-07-13T10:10:57;3.60;;;2.10;;
7047;SDS011;3565;53.254;10.352;2023-07-13T10:13:35;3.57;;;2.00;;
7047;SDS011;3565;53.254;10.352;2023-07-13T10:18:44;4.93;;;1.97;;
7047;SDS011;3565;53.254;10.352;2023-07-13T10:21:16;5.60;;;1.90;;
7047;SDS011;3565;53.254;10.352;2023-07-13T10:23:57;4.07;;;2.20;;
7047;SDS011;3565;53.254;10.352;2023-07-13T10:29:08;5.70;;;2.43;;
7047;SDS011;3565;53.254;10.352;2023-07-13T10:31:48;6.05;;;2.25;;
7047;SDS011;3565;53.254;10.352;2023-07-13T10:34:17;4.23;;;1.80;;
7047;SDS011;3565;53.254;10.352;2023-07-13T10:36:57;3.55;;;1.90;;
7047;SDS011;3565;53.254;10.352;2023-07-13T10:39:28;4.17;;;2.05;;
7047;SDS011;3565;53.254;10.352;2023-07-13T10:44:37;5.00;;;2.10;;
7047;SDS011;3565;53.254;10.352;2023-07-13T10:49:44;4.60;;;2.27;;
7047;SDS011;3565;53.254;10.352;2023-07-13T10:58:03;6.87;;;2.08;;
7047;SDS011;3565;53.254;10.352;2023-07-13T11:00:51;2.87;;;2.00;;
7047;SDS011;3565;53.254;10.352;2023-07-13T11:03:24;4.53;;;2.58;;
7047;SDS011;3565;53.254;10.352;2023-07-13T11:08:52;3.15;;;1.95;;
7047;SDS011;3565;53.254;10.352;2023-07-13T11:11:36;5.12;;;2.22;;
7047;SDS011;3565;53.254;10.352;2023-07-13T11:14:34;4.72;;;2.22;;
7047;SDS011;3565;53.254;10.352;2023-07-13T11:20:30;4.33;;;2.30;;
7047;SDS011;3565;53.254;10.352;2023-07-13T11:23:19;3.90;;;2.10;;
7047;SDS011;3565;53.254;10.352;2023-07-13T11:28:36;7.22;;;2.67;;
7047;SDS011;3565;53.254;10.352;2023-07-13T11:31:14;3.50;;;2.10;;
7047;SDS011;3565;53.254;10.352;2023-07-13T11:33:55;3.95;;;2.17;;
7047;SDS011;3565;53.254;10.352;2023-07-13T11:39:10;4.72;;;2.10;;
7047;SDS011;3565;53.254;10.352;2023-07-13T11:41:50;3.30;;;2.17;;
7047;SDS011;3565;53.254;10.352;2023-07-13T11:44:22;4.20;;;2.30;;
7047;SDS011;3565;53.254;10.352;2023-07-13T11:49:30;3.77;;;2.27;;
7047;SDS011;3565;53.254;10.352;2023-07-13T11:52:01;4.23;;;2.77;;
7047;SDS011;3565;53.254;10.352;2023-07-13T11:54:47;5.47;;;2.47;;
7047;SDS011;3565;53.254;10.352;2023-07-13T11:57:21;3.73;;;2.40;;
7047;SDS011;3565;53.254;10.352;2023-07-13T11:59:53;5.37;;;2.50;;
7047;SDS011;3565;53.254;10.352;2023-07-13T12:02:25;4.53;;;2.20;;
7047;SDS011;3565;53.254;10.352;2023-07-13T12:04:57;3.20;;;2.37;;
7047;SDS011;3565;53.254;10.352;2023-07-13T12:07:29;3.60;;;2.50;;
7047;SDS011;3565;53.254;10.352;2023-07-13T12:10:01;2.17;;;1.90;;
7047;SDS011;3565;53.254;10.352;2023-07-13T12:12:40;3.80;;;2.40;;
7047;SDS011;3565;53.254;10.352;2023-07-13T12:15:14;5.33;;;2.80;;
7047;SDS011;3565;53.254;10.352;2023-07-13T12:17:52;4.13;;;2.43;;
7047;SDS011;3565;53.254;10.352;2023-07-13T12:20:24;2.63;;;2.40;;
7047;SDS011;3565;53.254;10.352;2023-07-13T12:22:54;4.53;;;3.00;;
7047;SDS011;3565;53.254;10.352;2023-07-13T12:25:24;4.10;;;2.50;;
7047;SDS011;3565;53.254;10.352;2023-07-13T12:27:54;3.70;;;2.63;;
7047;SDS011;3565;53.254;10.352;2023-07-13T12:30:27;4.53;;;2.90;;
7047;SDS011;3565;53.254;10.352;2023-07-13T12:33:07;4.20;;;2.40;;
7047;SDS011;3565;53.254;10.352;2023-07-13T12:35:40;3.40;;;2.40;;
7047;SDS011;3565;53.254;10.352;2023-07-13T12:38:12;3.10;;;2.77;;
7047;SDS011;3565;53.254;10.352;2023-07-13T12:40:51;4.57;;;2.70;;
7047;SDS011;3565;53.254;10.352;2023-07-13T12:43:21;3.50;;;2.73;;
7047;SDS011;3565;53.254;10.352;2023-07-13T12:45:57;4.83;;;3.00;;
7047;SDS011;3565;53.254;10.352;2023-07-13T12:48:38;5.23;;;2.93;;
7047;SDS011;3565;53.254;10.352;2023-07-13T12:51:12;4.80;;;2.60;;
7047;SDS011;3565;53.254;10.352;2023-07-13T12:53:51;5.00;;;2.97;;
7047;SDS011;3565;53.254;10.352;2023-07-13T12:59:02;6.27;;;2.90;;
7047;SDS011;3565;53.254;10.352;2023-07-13T13:01:34;4.53;;;2.50;;
7047;SDS011;3565;53.254;10.352;2023-07-13T13:04:13;3.40;;;2.70;;
7047;SDS011;3565;53.254;10.352;2023-07-13T13:09:20;5.30;;;3.00;;
7047;SDS011;3565;53.254;10.352;2023-07-13T13:11:50;5.00;;;3.50;;
7047;SDS011;3565;53.254;10.352;2023-07-13T13:14:28;3.20;;;2.77;;
7047;SDS011;3565;53.254;10.352;2023-07-13T13:19:35;6.17;;;4.00;;
7047;SDS011;3565;53.254;10.352;2023-07-13T13:22:05;4.30;;;3.83;;
7047;SDS011;3565;53.254;10.352;2023-07-13T13:24:44;5.07;;;3.97;;
7047;SDS011;3565;53.254;10.352;2023-07-13T13:29:52;3.93;;;3.50;;
7047;SDS011;3565;53.254;10.352;2023-07-13T13:32:21;5.07;;;3.93;;
7047;SDS011;3565;53.254;10.352;2023-07-13T13:34:50;6.90;;;4.13;;
7047;SDS011;3565;53.254;10.352;2023-07-13T13:37:20;4.30;;;3.77;;
7047;SDS011;3565;53.254;10.352;2023-07-13T13:39:51;4.60;;;3.53;;
7047;SDS011;3565;53.254;10.352;2023-07-13T13:42:21;4.60;;;3.90;;
7047;SDS011;3565;53.254;10.352;2023-07-13T13:44:52;7.07;;;3.83;;
7047;SDS011;3565;53.254;10.352;2023-07-13T13:47:27;4.67;;;3.57;;
7047;SDS011;3565;53.254;10.352;2023-07-13T13:49:59;6.17;;;3.73;;
7047;SDS011;3565;53.254;10.352;2023-07-13T13:52:29;4.47;;;3.37;;
7047;SDS011;3565;53.254;10.352;2023-07-13T13:54:59;5.17;;;3.90;;
7047;SDS011;3565;53.254;10.352;2023-07-13T13:57:28;4.17;;;3.77;;
7047;SDS011;3565;53.254;10.352;2023-07-13T13:59:57;6.97;;;4.10;;
7047;SDS011;3565;53.254;10.352;2023-07-13T14:02:27;7.17;;;4.83;;
7047;SDS011;3565;53.254;10.352;2023-07-13T14:04:59;5.13;;;4.00;;
7047;SDS011;3565;53.254;10.352;2023-07-13T14:07:28;4.90;;;4.10;;
7047;SDS011;3565;53.254;10.352;2023-07-13T14:09:58;7.53;;;3.97;;
7047;SDS011;3565;53.254;10.352;2023-07-13T14:12:28;6.60;;;4.10;;
7047;SDS011;3565;53.254;10.352;2023-07-13T14:14:58;5.03;;;3.73;;
7047;SDS011;3565;53.254;10.352;2023-07-13T14:17:27;4.97;;;4.20;;
7047;SDS011;3565;53.254;10.352;2023-07-13T14:19:56;5.03;;;3.90;;
7047;SDS011;3565;53.254;10.352;2023-07-13T14:22:26;5.00;;;3.70;;
7047;SDS011;3565;53.254;10.352;2023-07-13T14:24:55;5.53;;;4.00;;
7047;SDS011;3565;53.254;10.352;2023-07-13T14:27:25;4.50;;;4.00;;
7047;SDS011;3565;53.254;10.352;2023-07-13T14:29:54;4.33;;;3.57;;
7047;SDS011;3565;53.254;10.352;2023-07-13T14:32:23;7.93;;;4.50;;
7047;SDS011;3565;53.254;10.352;2023-07-13T14:34:53;4.37;;;3.97;;
7047;SDS011;3565;53.254;10.352;2023-07-13T14:37:22;4.07;;;3.63;;
7047;SDS011;3565;53.254;10.352;2023-07-13T14:39:52;5.13;;;4.03;;
7047;SDS011;3565;53.254;10.352;2023-07-13T14:42:30;4.00;;;3.60;;
7047;SDS011;3565;53.254;10.352;2023-07-13T14:44:59;4.17;;;3.30;;
7047;SDS011;3565;53.254;10.352;2023-07-13T14:47:28;4.17;;;3.63;;
7047;SDS011;3565;53.254;10.352;2023-07-13T14:49:57;5.23;;;3.60;;
7047;SDS011;3565;53.254;10.352;2023-07-13T14:52:28;4.33;;;3.73;;
7047;SDS011;3565;53.254;10.352;2023-07-13T14:54:57;5.03;;;3.30;;
7047;SDS011;3565;53.254;10.352;2023-07-13T14:57:26;4.33;;;3.60;;
7047;SDS011;3565;53.254;10.352;2023-07-13T14:59:55;5.60;;;3.90;;
7047;SDS011;3565;53.254;10.352;2023-07-13T15:02:25;7.00;;;3.77;;
7047;SDS011;3565;53.254;10.352;2023-07-13T15:04:56;4.30;;;3.63;;
7047;SDS011;3565;53.254;10.352;2023-07-13T15:07:26;3.40;;;3.00;;
7047;SDS011;3565;53.254;10.352;2023-07-13T15:09:55;3.93;;;3.03;;
7047;SDS011;3565;53.254;10.352;2023-07-13T15:12:24;3.20;;;2.50;;
7047;SDS011;3565;53.254;10.352;2023-07-13T15:14:53;3.50;;;2.93;;
7047;SDS011;3565;53.254;10.352;2023-07-13T15:17:24;3.30;;;2.60;;
7047;SDS011;3565;53.254;10.352;2023-07-13T15:19:55;3.90;;;2.50;;
7047;SDS011;3565;53.254;10.352;2023-07-13T15:22:26;3.60;;;2.73;;
7047;SDS011;3565;53.254;10.352;2023-07-13T15:24:55;2.63;;;2.43;;
7047;SDS011;3565;53.254;10.352;2023-07-13T15:30:01;3.00;;;2.50;;
7047;SDS011;3565;53.254;10.352;2023-07-13T15:32:31;3.63;;;2.50;;
7047;SDS011;3565;53.254;10.352;2023-07-13T15:35:00;2.47;;;2.20;;
7047;SDS011;3565;53.254;10.352;2023-07-13T15:37:29;2.30;;;2.00;;
7047;SDS011;3565;53.254;10.352;2023-07-13T15:39:59;2.37;;;2.10;;
7047;SDS011;3565;53.254;10.352;2023-07-13T15:42:28;2.53;;;2.03;;
7047;SDS011;3565;53.254;10.352;2023-07-13T15:44:57;2.37;;;2.17;;
7047;SDS011;3565;53.254;10.352;2023-07-13T15:47:29;4.53;;;2.40;;
7047;SDS011;3565;53.254;10.352;2023-07-13T15:49:58;2.30;;;2.07;;
7047;SDS011;3565;53.254;10.352;2023-07-13T15:52:27;3.77;;;2.10;;
7047;SDS011;3565;53.254;10.352;2023-07-13T15:54:58;3.20;;;1.90;;
7047;SDS011;3565;53.254;10.352;2023-07-13T15:57:29;2.20;;;2.00;;
7047;SDS011;3565;53.254;10.352;2023-07-13T15:59:58;2.50;;;2.30;;
7047;SDS011;3565;53.254;10.352;2023-07-13T16:02:27;2.80;;;2.20;;
7047;SDS011;3565;53.254;10.352;2023-07-13T16:04:56;2.87;;;2.33;;
7047;SDS011;3565;53.254;10.352;2023-07-13T16:07:25;3.20;;;2.40;;
7047;SDS011;3565;53.254;10.352;2023-07-13T16:09:54;3.53;;;2.20;;
7047;SDS011;3565;53.254;10.352;2023-07-13T16:12:24;2.10;;;1.90;;
7047;SDS011;3565;53.254;10.352;2023-07-13T16:14:53;2.40;;;2.00;;
7047;SDS011;3565;53.254;10.352;2023-07-13T16:17:22;2.20;;;1.90;;
7047;SDS011;3565;53.254;10.352;2023-07-13T16:19:51;3.33;;;2.20;;
7047;SDS011;3565;53.254;10.352;2023-07-13T16:22:22;2.77;;;1.90;;
7047;SDS011;3565;53.254;10.352;2023-07-13T16:24:52;2.43;;;2.10;;
7047;SDS011;3565;53.254;10.352;2023-07-13T16:27:22;2.20;;;2.00;;
7047;SDS011;3565;53.254;10.352;2023-07-13T16:29:51;2.30;;;2.10;;
7047;SDS011;3565;53.254;10.352;2023-07-13T16:32:20;2.30;;;1.80;;
7047;SDS011;3565;53.254;10.352;2023-07-13T16:34:51;2.77;;;1.90;;
7047;SDS011;3565;53.254;10.352;2023-07-13T16:37:22;2.33;;;2.03;;
7047;SDS011;3565;53.254;10.352;2023-07-13T16:39:54;2.83;;;2.00;;
7047;SDS011;3565;53.254;10.352;2023-07-13T16:42:26;2.47;;;2.10;;
7047;SDS011;3565;53.254;10.352;2023-07-13T16:44:55;2.63;;;2.10;;
7047;SDS011;3565;53.254;10.352;2023-07-13T16:47:24;3.20;;;1.90;;
7047;SDS011;3565;53.254;10.352;2023-07-13T16:49:54;3.70;;;1.90;;
7047;SDS011;3565;53.254;10.352;2023-07-13T16:52:24;2.87;;;2.20;;
7047;SDS011;3565;53.254;10.352;2023-07-13T16:54:53;4.23;;;2.00;;
7047;SDS011;3565;53.254;10.352;2023-07-13T17:00:07;4.60;;;2.23;;
7047;SDS011;3565;53.254;10.352;2023-07-13T17:02:42;3.43;;;2.07;;
7047;SDS011;3565;53.254;10.352;2023-07-13T17:07:53;5.20;;;2.37;;
7047;SDS011;3565;53.254;10.352;2023-07-13T17:10:23;2.47;;;2.10;;
7047;SDS011;3565;53.254;10.352;2023-07-13T17:12:53;3.47;;;2.00;;
7047;SDS011;3565;53.254;10.352;2023-07-13T17:15:23;3.07;;;2.20;;
7047;SDS011;3565;53.254;10.352;2023-07-13T17:17:54;2.57;;;2.37;;
7047;SDS011;3565;53.254;10.352;2023-07-13T17:23:08;2.33;;;2.00;;
7047;SDS011;3565;53.254;10.352;2023-07-13T17:28:19;2.77;;;2.30;;
7047;SDS011;3565;53.254;10.352;2023-07-13T17:30:50;2.43;;;2.20;;
7047;SDS011;3565;53.254;10.352;2023-07-13T17:33:27;2.40;;;2.10;;
7047;SDS011;3565;53.254;10.352;2023-07-13T17:38:36;4.60;;;2.53;;
7047;SDS011;3565;53.254;10.352;2023-07-13T17:41:06;2.73;;;2.33;;
7047;SDS011;3565;53.254;10.352;2023-07-13T17:43:38;2.87;;;2.50;;
7047;SDS011;3565;53.254;10.352;2023-07-13T17:46:11;3.73;;;2.60;;
7047;SDS011;3565;53.254;10.352;2023-07-13T17:51:18;3.43;;;2.30;;
7047;SDS011;3565;53.254;10.352;2023-07-13T17:53:53;2.93;;;2.30;;
7047;SDS011;3565;53.254;10.352;2023-07-13T17:56:24;2.83;;;2.23;;